createdAt,value
2018-11-12T00:00:59.245Z,1006.48
2018-11-12T00:01:59.229Z,1006.46
2018-11-12T00:02:59.223Z,1006.44
2018-11-12T00:03:59.235Z,1006.38
2018-11-12T00:04:59.197Z,1006.31
2018-11-12T00:05:59.185Z,1006.31
2018-11-12T00:06:59.171Z,1006.30
2018-11-12T00:07:59.173Z,1006.29
2018-11-12T00:08:59.190Z,1006.32
2018-11-12T00:09:59.154Z,1006.29
2018-11-12T00:10:59.129Z,1006.35
2018-11-12T00:11:59.152Z,1006.29
2018-11-12T00:12:59.104Z,1006.39
2018-11-12T00:13:59.121Z,1006.42
2018-11-12T00:14:59.086Z,1006.42
2018-11-12T00:15:59.112Z,1006.37
2018-11-12T00:16:59.062Z,1006.36
2018-11-12T00:17:59.067Z,1006.38
2018-11-12T00:18:59.080Z,1006.40
2018-11-12T00:19:59.064Z,1006.41
2018-11-12T00:20:59.036Z,1006.42
2018-11-12T00:21:59.070Z,1006.38
2018-11-12T00:22:59.027Z,1006.33
2018-11-12T00:23:59.026Z,1006.31
2018-11-12T00:24:59.004Z,1006.34
2018-11-12T00:25:58.979Z,1006.37
2018-11-12T00:26:58.963Z,1006.31
2018-11-12T00:27:58.943Z,1006.27
2018-11-12T00:28:58.967Z,1006.30
2018-11-12T00:29:58.954Z,1006.32
2018-11-12T00:30:58.922Z,1006.36
2018-11-12T00:31:58.908Z,1006.45
2018-11-12T00:32:58.947Z,1006.41
2018-11-12T00:33:58.910Z,1006.43
2018-11-12T00:34:58.891Z,1006.45
2018-11-12T00:35:58.854Z,1006.42
2018-11-12T00:36:58.851Z,1006.41
2018-11-12T00:37:58.837Z,1006.41
2018-11-12T00:38:58.898Z,1006.43
2018-11-12T00:39:58.821Z,1006.40
2018-11-12T00:40:58.831Z,1006.35
2018-11-12T00:41:58.800Z,1006.35
2018-11-12T00:42:58.791Z,1006.31
2018-11-12T00:43:58.788Z,1006.33
2018-11-12T00:44:58.761Z,1006.39
2018-11-12T00:45:58.763Z,1006.48
2018-11-12T00:46:58.737Z,1006.43
2018-11-12T00:47:58.722Z,1006.44
2018-11-12T00:48:58.746Z,1006.39
2018-11-12T00:49:58.711Z,1006.38
2018-11-12T00:50:58.700Z,1006.38
2018-11-12T00:51:58.680Z,1006.36
2018-11-12T00:52:58.715Z,1006.37
2018-11-12T00:53:58.693Z,1006.46
2018-11-12T00:54:58.646Z,1006.50
2018-11-12T00:55:58.651Z,1006.54
2018-11-12T00:56:58.627Z,1006.52
2018-11-12T00:57:58.610Z,1006.53
2018-11-12T00:58:58.633Z,1006.51
2018-11-12T00:59:58.599Z,1006.56
2018-11-12T01:00:58.587Z,1006.56
2018-11-12T01:01:58.597Z,1006.60
2018-11-12T01:02:58.555Z,1006.60
2018-11-12T01:03:58.601Z,1006.60
2018-11-12T01:04:58.591Z,1006.60
2018-11-12T01:05:58.542Z,1006.58
2018-11-12T01:06:58.524Z,1006.59
2018-11-12T01:07:58.503Z,1006.57
2018-11-12T01:08:58.528Z,1006.59
2018-11-12T01:09:58.518Z,1006.54
2018-11-12T01:10:58.487Z,1006.56
2018-11-12T01:11:58.472Z,1006.60
2018-11-12T01:12:58.452Z,1006.56
2018-11-12T01:13:58.462Z,1006.58
2018-11-12T01:14:58.463Z,1006.53
2018-11-12T01:15:58.471Z,1006.51
2018-11-12T01:16:58.411Z,1006.53
2018-11-12T01:17:58.406Z,1006.54
2018-11-12T01:18:58.383Z,1006.56
2018-11-12T01:19:58.405Z,1006.52
2018-11-12T01:20:58.385Z,1006.56
2018-11-12T01:21:58.349Z,1006.57
2018-11-12T01:22:58.358Z,1006.53
2018-11-12T01:23:58.329Z,1006.57
2018-11-12T01:24:58.345Z,1006.57
2018-11-12T01:25:58.327Z,1006.58
2018-11-12T01:26:58.293Z,1006.55
2018-11-12T01:27:58.311Z,1006.58
2018-11-12T01:28:58.272Z,1006.69
2018-11-12T01:29:58.287Z,1006.70
2018-11-12T01:30:58.253Z,1006.65
2018-11-12T01:31:58.237Z,1006.70
2018-11-12T01:32:58.228Z,1006.72
2018-11-12T01:33:58.266Z,1006.73
2018-11-12T01:34:58.235Z,1006.77
2018-11-12T01:35:58.198Z,1006.75
2018-11-12T01:36:58.184Z,1006.80
2018-11-12T01:37:58.184Z,1006.77
2018-11-12T01:38:58.165Z,1006.74
2018-11-12T01:39:58.188Z,1006.70
2018-11-12T01:40:58.142Z,1006.69
2018-11-12T01:41:58.174Z,1006.61
2018-11-12T01:42:58.124Z,1006.56
2018-11-12T01:43:58.122Z,1006.52
2018-11-12T01:44:58.156Z,1006.52
2018-11-12T01:45:58.092Z,1006.56
2018-11-12T01:46:58.073Z,1006.58
2018-11-12T01:47:58.442Z,1006.53
2018-11-12T01:48:58.059Z,1006.55
2018-11-12T01:49:58.078Z,1006.60
2018-11-12T01:50:58.077Z,1006.57
2018-11-12T01:51:58.021Z,1006.55
2018-11-12T01:52:58.021Z,1006.54
2018-11-12T01:53:58.005Z,1006.59
2018-11-12T01:54:58.010Z,1006.56
2018-11-12T01:55:58.004Z,1006.57
2018-11-12T01:56:57.982Z,1006.61
2018-11-12T01:57:57.986Z,1006.64
2018-11-12T01:58:57.944Z,1006.66
2018-11-12T01:59:57.960Z,1006.69
2018-11-12T02:00:57.941Z,1006.72
2018-11-12T02:01:57.919Z,1006.78
2018-11-12T02:02:57.909Z,1006.81
2018-11-12T02:03:57.905Z,1006.81
2018-11-12T02:04:58.092Z,1006.76
2018-11-12T02:05:57.878Z,1006.76
2018-11-12T02:06:57.863Z,1006.73
2018-11-12T02:07:57.843Z,1006.65
2018-11-12T02:08:57.881Z,1006.59
2018-11-12T02:09:57.852Z,1006.58
2018-11-12T02:10:57.823Z,1006.55
2018-11-12T02:11:57.799Z,1006.51
2018-11-12T02:12:57.792Z,1006.56
2018-11-12T02:13:57.845Z,1006.53
2018-11-12T02:14:57.863Z,1006.54
2018-11-12T02:15:57.776Z,1006.47
2018-11-12T02:16:57.791Z,1006.50
2018-11-12T02:17:57.733Z,1006.44
2018-11-12T02:18:57.719Z,1006.39
2018-11-12T02:19:57.848Z,1006.35
2018-11-12T02:20:57.752Z,1006.40
2018-11-12T02:21:57.743Z,1006.38
2018-11-12T02:22:57.772Z,1006.44
2018-11-12T02:23:57.665Z,1006.42
2018-11-12T02:24:57.682Z,1006.43
2018-11-12T02:25:57.660Z,1006.43
2018-11-12T02:26:57.744Z,1006.42
2018-11-12T02:27:57.633Z,1006.44
2018-11-12T02:28:57.612Z,1006.37
2018-11-12T02:29:57.640Z,1006.40
2018-11-12T02:30:57.599Z,1006.37
2018-11-12T02:31:57.647Z,1006.41
2018-11-12T02:32:57.591Z,1006.43
2018-11-12T02:33:57.555Z,1006.43
2018-11-12T02:34:57.628Z,1006.42
2018-11-12T02:35:57.567Z,1006.43
2018-11-12T02:36:57.569Z,1006.40
2018-11-12T02:37:57.520Z,1006.32
2018-11-12T02:38:57.503Z,1006.36
2018-11-12T02:39:57.570Z,1006.28
2018-11-12T02:40:57.517Z,1006.24
2018-11-12T02:41:57.470Z,1006.23
2018-11-12T02:42:57.643Z,1006.24
2018-11-12T02:43:57.460Z,1006.24
2018-11-12T02:44:57.441Z,1006.21
2018-11-12T02:45:57.467Z,1006.18
2018-11-12T02:46:57.416Z,1006.17
2018-11-12T02:47:57.403Z,1006.26
2018-11-12T02:48:57.422Z,1006.30
2018-11-12T02:49:57.381Z,1006.21
2018-11-12T02:50:57.400Z,1006.22
2018-11-12T02:51:57.536Z,1006.25
2018-11-12T02:52:57.346Z,1006.23
2018-11-12T02:53:57.347Z,1006.20
2018-11-12T02:54:57.410Z,1006.23
2018-11-12T02:55:57.344Z,1006.22
2018-11-12T02:56:57.300Z,1006.22
2018-11-12T02:57:57.370Z,1006.23
2018-11-12T02:58:57.282Z,1006.23
2018-11-12T02:59:57.307Z,1006.18
2018-11-12T03:00:57.310Z,1006.17
2018-11-12T03:01:57.388Z,1006.11
2018-11-12T03:02:57.249Z,1006.13
2018-11-12T03:03:57.236Z,1006.07
2018-11-12T03:04:57.266Z,1006.08
2018-11-12T03:05:57.226Z,1006.13
2018-11-12T03:06:57.243Z,1006.14
2018-11-12T03:07:57.223Z,1006.15
2018-11-12T03:08:57.239Z,1006.18
2018-11-12T03:09:57.165Z,1006.17
2018-11-12T03:10:57.266Z,1006.15
2018-11-12T03:11:57.164Z,1006.20
2018-11-12T03:12:57.129Z,1006.27
2018-11-12T03:13:57.120Z,1006.28
2018-11-12T03:14:57.140Z,1006.17
2018-11-12T03:15:57.125Z,1006.16
2018-11-12T03:16:57.121Z,1006.16
2018-11-12T03:17:57.082Z,1006.13
2018-11-12T03:18:57.079Z,1006.13
2018-11-12T03:19:57.069Z,1006.16
2018-11-12T03:20:57.076Z,1006.14
2018-11-12T03:21:57.114Z,1006.19
2018-11-12T03:22:57.042Z,1006.17
2018-11-12T03:23:57.013Z,1006.10
2018-11-12T03:24:57.032Z,1006.03
2018-11-12T03:25:57.030Z,1005.99
2018-11-12T03:26:57.009Z,1005.97
2018-11-12T03:27:56.976Z,1005.96
2018-11-12T03:28:57.030Z,1005.97
2018-11-12T03:29:56.952Z,1005.98
2018-11-12T03:30:56.969Z,1006.03
2018-11-12T03:31:57.060Z,1006.03
2018-11-12T03:32:56.913Z,1006.04
2018-11-12T03:33:56.949Z,1006.04
2018-11-12T03:34:56.891Z,1006.05
2018-11-12T03:35:56.988Z,1005.96
2018-11-12T03:36:56.885Z,1005.95
2018-11-12T03:37:56.868Z,1005.94
2018-11-12T03:38:56.845Z,1006.00
2018-11-12T03:39:56.870Z,1005.93
2018-11-12T03:40:56.918Z,1005.92
2018-11-12T03:41:56.840Z,1005.93
2018-11-12T03:42:56.799Z,1005.92
2018-11-12T03:43:56.831Z,1005.97
2018-11-12T03:44:56.781Z,1005.90
2018-11-12T03:45:56.868Z,1005.91
2018-11-12T03:46:56.834Z,1005.88
2018-11-12T03:47:56.741Z,1005.88
2018-11-12T03:48:56.744Z,1005.90
2018-11-12T03:49:56.814Z,1005.92
2018-11-12T03:50:56.735Z,1005.93
2018-11-12T03:51:56.808Z,1005.89
2018-11-12T03:52:56.698Z,1005.91
2018-11-12T03:53:56.748Z,1005.90
2018-11-12T03:54:56.663Z,1005.93
2018-11-12T03:55:56.665Z,1005.95
2018-11-12T03:56:56.696Z,1005.94
2018-11-12T03:57:56.654Z,1005.98
2018-11-12T03:58:56.640Z,1005.96
2018-11-12T03:59:56.642Z,1005.93
2018-11-12T04:00:56.626Z,1005.91
2018-11-12T04:01:56.623Z,1005.88
2018-11-12T04:02:56.640Z,1005.84
2018-11-12T04:03:56.710Z,1005.83
2018-11-12T04:04:56.662Z,1005.85
2018-11-12T04:05:56.548Z,1005.80
2018-11-12T04:06:56.585Z,1005.81
2018-11-12T04:07:56.546Z,1005.74
2018-11-12T04:08:56.586Z,1005.77
2018-11-12T04:09:56.521Z,1005.73
2018-11-12T04:10:56.712Z,1005.74
2018-11-12T04:11:56.556Z,1005.69
2018-11-12T04:12:56.484Z,1005.65
2018-11-12T04:13:56.468Z,1005.66
2018-11-12T04:14:56.454Z,1005.68
2018-11-12T04:15:56.471Z,1005.67
2018-11-12T04:16:56.467Z,1005.67
2018-11-12T04:17:56.427Z,1005.65
2018-11-12T04:18:56.424Z,1005.60
2018-11-12T04:19:56.431Z,1005.54
2018-11-12T04:20:56.392Z,1005.52
2018-11-12T04:21:56.406Z,1005.50
2018-11-12T04:22:56.498Z,1005.46
2018-11-12T04:23:56.355Z,1005.50
2018-11-12T04:24:56.490Z,1005.51
2018-11-12T04:25:56.431Z,1005.51
2018-11-12T04:26:56.410Z,1005.53
2018-11-12T04:27:56.342Z,1005.52
2018-11-12T04:28:56.290Z,1005.48
2018-11-12T04:29:56.308Z,1005.49
2018-11-12T04:30:56.284Z,1005.53
2018-11-12T04:31:56.289Z,1005.52
2018-11-12T04:32:56.320Z,1005.56
2018-11-12T04:33:56.235Z,1005.54
2018-11-12T04:34:56.245Z,1005.52
2018-11-12T04:35:56.220Z,1005.53
2018-11-12T04:36:56.325Z,1005.52
2018-11-12T04:37:56.196Z,1005.54
2018-11-12T04:38:56.209Z,1005.55
2018-11-12T04:39:56.171Z,1005.53
2018-11-12T04:40:56.193Z,1005.54
2018-11-12T04:41:56.181Z,1005.49
2018-11-12T04:42:56.240Z,1005.46
2018-11-12T04:43:56.225Z,1005.40
2018-11-12T04:44:56.236Z,1005.34
2018-11-12T04:45:56.112Z,1005.31
2018-11-12T04:46:56.200Z,1005.31
2018-11-12T04:47:56.086Z,1005.31
2018-11-12T04:48:56.069Z,1005.32
2018-11-12T04:49:56.168Z,1005.38
2018-11-12T04:50:56.049Z,1005.37
2018-11-12T04:51:56.142Z,1005.40
2018-11-12T04:52:56.054Z,1005.39
2018-11-12T04:53:56.019Z,1005.41
2018-11-12T04:54:56.064Z,1005.40
2018-11-12T04:55:55.999Z,1005.42
2018-11-12T04:56:56.012Z,1005.49
2018-11-12T04:57:55.994Z,1005.45
2018-11-12T04:58:55.997Z,1005.49
2018-11-12T04:59:55.965Z,1005.44
2018-11-12T05:00:55.961Z,1005.43
2018-11-12T05:01:56.038Z,1005.47
2018-11-12T05:02:55.940Z,1005.47
2018-11-12T05:03:55.910Z,1005.48
2018-11-12T05:04:55.902Z,1005.50
2018-11-12T05:05:55.913Z,1005.48
2018-11-12T05:06:55.919Z,1005.45
2018-11-12T05:07:55.921Z,1005.49
2018-11-12T05:08:55.852Z,1005.46
2018-11-12T05:09:55.873Z,1005.48
2018-11-12T05:10:55.860Z,1005.46
2018-11-12T05:11:55.842Z,1005.48
2018-11-12T05:12:55.815Z,1005.47
2018-11-12T05:13:55.798Z,1005.47
2018-11-12T05:14:55.814Z,1005.48
2018-11-12T05:15:55.820Z,1005.52
2018-11-12T05:16:55.793Z,1005.48
2018-11-12T05:17:55.755Z,1005.48
2018-11-12T05:18:55.760Z,1005.43
2018-11-12T05:19:55.740Z,1005.47
2018-11-12T05:20:55.729Z,1005.46
2018-11-12T05:21:55.738Z,1005.40
2018-11-12T05:22:55.714Z,1005.41
2018-11-12T05:23:55.695Z,1005.41
2018-11-12T05:24:55.676Z,1005.43
2018-11-12T05:25:55.667Z,1005.34
2018-11-12T05:26:55.682Z,1005.30
2018-11-12T05:27:55.676Z,1005.35
2018-11-12T05:28:55.630Z,1005.34
2018-11-12T05:29:55.627Z,1005.28
2018-11-12T05:30:55.641Z,1005.23
2018-11-12T05:31:55.622Z,1005.26
2018-11-12T05:32:55.625Z,1005.28
2018-11-12T05:33:55.592Z,1005.31
2018-11-12T05:34:55.572Z,1005.21
2018-11-12T05:35:55.573Z,1005.17
2018-11-12T05:36:55.549Z,1005.12
2018-11-12T05:37:55.676Z,1005.12
2018-11-12T05:38:55.549Z,1005.18
2018-11-12T05:39:55.523Z,1005.15
2018-11-12T05:40:55.509Z,1005.09
2018-11-12T05:41:55.509Z,1005.15
2018-11-12T05:42:55.523Z,1005.12
2018-11-12T05:43:55.467Z,1005.09
2018-11-12T05:44:55.491Z,1005.11
2018-11-12T05:45:55.449Z,1005.08
2018-11-12T05:46:55.433Z,1005.04
2018-11-12T05:47:55.495Z,1005.01
2018-11-12T05:48:55.415Z,1005.01
2018-11-12T05:49:55.435Z,1005.00
2018-11-12T05:50:55.391Z,1004.97
2018-11-12T05:51:55.383Z,1004.94
2018-11-12T05:52:55.438Z,1005.02
2018-11-12T05:53:55.358Z,1004.96
2018-11-12T05:54:55.348Z,1005.02
2018-11-12T05:55:55.353Z,1005.00
2018-11-12T05:56:55.324Z,1004.94
2018-11-12T05:57:55.591Z,1004.98
2018-11-12T05:58:55.346Z,1005.02
2018-11-12T05:59:55.308Z,1005.09
2018-11-12T06:00:55.512Z,1005.11
2018-11-12T06:01:55.270Z,1005.08
2018-11-12T06:02:55.299Z,1005.12
2018-11-12T06:03:55.247Z,1005.11
2018-11-12T06:04:55.307Z,1005.07
2018-11-12T06:05:55.255Z,1005.07
2018-11-12T06:06:55.218Z,1005.05
2018-11-12T06:07:55.231Z,1005.05
2018-11-12T06:08:55.192Z,1005.13
2018-11-12T06:09:55.183Z,1005.13
2018-11-12T06:10:55.203Z,1005.21
2018-11-12T06:11:55.182Z,1005.18
2018-11-12T06:12:55.177Z,1005.26
2018-11-12T06:13:55.139Z,1005.23
2018-11-12T06:14:55.128Z,1005.25
2018-11-12T06:15:55.122Z,1005.25
2018-11-12T06:16:55.107Z,1005.33
2018-11-12T06:17:55.125Z,1005.31
2018-11-12T06:18:55.137Z,1005.25
2018-11-12T06:19:55.125Z,1005.24
2018-11-12T06:20:55.193Z,1005.17
2018-11-12T06:21:55.048Z,1005.19
2018-11-12T06:22:55.069Z,1005.12
2018-11-12T06:23:55.038Z,1005.16
2018-11-12T06:24:55.019Z,1005.21
2018-11-12T06:25:55.018Z,1005.25
2018-11-12T06:26:55.029Z,1005.21
2018-11-12T06:27:55.025Z,1005.20
2018-11-12T06:28:54.998Z,1005.21
2018-11-12T06:29:54.971Z,1005.21
2018-11-12T06:30:54.963Z,1005.20
2018-11-12T06:31:54.980Z,1005.21
2018-11-12T06:32:55.177Z,1005.15
2018-11-12T06:33:54.943Z,1005.14
2018-11-12T06:34:55.056Z,1005.18
2018-11-12T06:35:55.134Z,1005.22
2018-11-12T06:36:55.117Z,1005.21
2018-11-12T06:37:54.903Z,1005.18
2018-11-12T06:38:54.864Z,1005.19
2018-11-12T06:39:54.868Z,1005.11
2018-11-12T06:40:54.844Z,1005.13
2018-11-12T06:41:54.865Z,1005.08
2018-11-12T06:42:54.911Z,1005.13
2018-11-12T06:43:54.823Z,1005.12
2018-11-12T06:44:54.827Z,1005.08
2018-11-12T06:45:54.801Z,1005.07
2018-11-12T06:46:54.794Z,1005.07
2018-11-12T06:47:54.797Z,1005.04
2018-11-12T06:48:54.756Z,1005.01
2018-11-12T06:49:54.771Z,1005.04
2018-11-12T06:50:54.754Z,1005.03
2018-11-12T06:51:54.726Z,1005.00
2018-11-12T06:52:54.760Z,1005.03
2018-11-12T06:53:54.717Z,1004.99
2018-11-12T06:54:54.695Z,1004.93
2018-11-12T06:55:54.678Z,1004.94
2018-11-12T06:56:54.683Z,1005.01
2018-11-12T06:57:54.667Z,1005.03
2018-11-12T06:58:54.667Z,1005.06
2018-11-12T06:59:54.633Z,1005.03
2018-11-12T07:00:54.654Z,1005.00
2018-11-12T07:01:54.661Z,1005.00
2018-11-12T07:02:54.625Z,1005.01
2018-11-12T07:03:54.662Z,1005.04
2018-11-12T07:04:54.591Z,1005.09
2018-11-12T07:05:54.593Z,1005.13
2018-11-12T07:06:54.626Z,1005.16
2018-11-12T07:07:54.574Z,1005.16
2018-11-12T07:08:54.604Z,1005.15
2018-11-12T07:09:54.524Z,1005.16
2018-11-12T07:10:54.510Z,1005.17
2018-11-12T07:11:54.502Z,1005.22
2018-11-12T07:12:54.546Z,1005.18
2018-11-12T07:13:54.507Z,1005.16
2018-11-12T07:14:54.479Z,1005.13
2018-11-12T07:15:54.464Z,1005.09
2018-11-12T07:16:54.462Z,1005.03
2018-11-12T07:17:54.502Z,1005.02
2018-11-12T07:18:54.531Z,1005.03
2018-11-12T07:19:54.428Z,1005.06
2018-11-12T07:20:54.415Z,1005.02
2018-11-12T07:21:54.430Z,1005.07
2018-11-12T07:22:54.390Z,1005.05
2018-11-12T07:23:54.394Z,1005.04
2018-11-12T07:24:54.362Z,1004.91
2018-11-12T07:25:54.358Z,1004.97
2018-11-12T07:26:54.387Z,1004.88
2018-11-12T07:27:54.334Z,1004.84
2018-11-12T07:28:54.338Z,1004.85
2018-11-12T07:29:54.328Z,1004.90
2018-11-12T07:30:54.392Z,1004.89
2018-11-12T07:31:54.281Z,1004.88
2018-11-12T07:32:54.274Z,1004.88
2018-11-12T07:33:54.335Z,1004.90
2018-11-12T07:34:54.254Z,1004.79
2018-11-12T07:35:54.250Z,1004.77
2018-11-12T07:36:54.251Z,1004.79
2018-11-12T07:37:54.242Z,1004.77
2018-11-12T07:38:54.230Z,1004.88
2018-11-12T07:39:54.200Z,1004.93
2018-11-12T07:40:54.196Z,1004.84
2018-11-12T07:41:54.239Z,1004.87
2018-11-12T07:42:54.181Z,1004.88
2018-11-12T07:43:54.177Z,1004.89
2018-11-12T07:44:54.141Z,1004.88
2018-11-12T07:45:54.133Z,1004.89
2018-11-12T07:46:54.117Z,1004.88
2018-11-12T07:47:54.118Z,1004.91
2018-11-12T07:48:54.217Z,1004.91
2018-11-12T07:49:54.099Z,1004.95
2018-11-12T07:50:54.076Z,1004.94
2018-11-12T07:51:54.072Z,1004.96
2018-11-12T07:52:54.077Z,1004.93
2018-11-12T07:53:54.079Z,1004.93
2018-11-12T07:54:54.035Z,1004.94
2018-11-12T07:55:54.021Z,1004.99
2018-11-12T07:56:54.012Z,1004.97
2018-11-12T07:57:53.998Z,1005.00
2018-11-12T07:58:54.013Z,1004.99
2018-11-12T07:59:54.000Z,1004.97
2018-11-12T08:00:53.968Z,1004.94
2018-11-12T08:01:53.967Z,1004.92
2018-11-12T08:02:54.000Z,1004.97
2018-11-12T08:03:53.980Z,1005.02
2018-11-12T08:04:53.927Z,1005.00
2018-11-12T08:05:53.930Z,1005.03
2018-11-12T08:06:53.908Z,1005.07
2018-11-12T08:07:53.905Z,1005.07
2018-11-12T08:08:53.968Z,1004.95
2018-11-12T08:09:53.873Z,1004.96
2018-11-12T08:10:53.886Z,1005.00
2018-11-12T08:11:53.897Z,1004.96
2018-11-12T08:12:54.017Z,1004.98
2018-11-12T08:13:53.855Z,1005.06
2018-11-12T08:14:53.860Z,1005.14
2018-11-12T08:15:53.845Z,1005.07
2018-11-12T08:16:53.840Z,1005.09
2018-11-12T08:17:53.784Z,1005.11
2018-11-12T08:18:53.908Z,1005.05
2018-11-12T08:19:53.761Z,1005.07
2018-11-12T08:20:53.776Z,1005.07
2018-11-12T08:21:53.878Z,1005.06
2018-11-12T08:22:53.746Z,1005.13
2018-11-12T08:23:53.788Z,1005.08
2018-11-12T08:24:53.786Z,1005.17
2018-11-12T08:25:53.740Z,1005.09
2018-11-12T08:26:53.772Z,1005.06
2018-11-12T08:27:53.684Z,1005.10
2018-11-12T08:28:53.668Z,1005.08
2018-11-12T08:29:53.792Z,1005.17
2018-11-12T08:30:53.646Z,1005.18
2018-11-12T08:31:53.633Z,1005.12
2018-11-12T08:32:53.663Z,1005.09
2018-11-12T08:33:53.679Z,1005.12
2018-11-12T08:34:53.614Z,1005.16
2018-11-12T08:35:53.590Z,1005.15
2018-11-12T08:36:53.591Z,1005.12
2018-11-12T08:37:53.613Z,1005.02
2018-11-12T08:38:53.560Z,1005.00
2018-11-12T08:39:53.599Z,1005.01
2018-11-12T08:40:53.745Z,1005.01
2018-11-12T08:41:53.632Z,1004.97
2018-11-12T08:42:53.534Z,1004.95
2018-11-12T08:43:53.535Z,1005.01
2018-11-12T08:44:53.570Z,1004.99
2018-11-12T08:45:53.489Z,1004.93
2018-11-12T08:46:53.456Z,1004.94
2018-11-12T08:47:53.461Z,1004.93
2018-11-12T08:48:53.573Z,1004.92
2018-11-12T08:49:53.516Z,1004.92
2018-11-12T08:50:53.487Z,1004.90
2018-11-12T08:51:53.406Z,1004.89
2018-11-12T08:52:53.434Z,1004.92
2018-11-12T08:53:53.377Z,1004.90
2018-11-12T08:54:53.437Z,1004.94
2018-11-12T08:55:53.409Z,1004.86
2018-11-12T08:56:53.349Z,1004.80
2018-11-12T08:57:53.391Z,1004.77
2018-11-12T08:58:53.388Z,1004.77
2018-11-12T08:59:53.364Z,1004.73
2018-11-12T09:00:53.387Z,1004.72
2018-11-12T09:01:53.297Z,1004.73
2018-11-12T09:02:53.400Z,1004.71
2018-11-12T09:03:53.299Z,1004.74
2018-11-12T09:04:53.344Z,1004.80
2018-11-12T09:05:53.310Z,1004.78
2018-11-12T09:06:53.251Z,1004.77
2018-11-12T09:07:53.232Z,1004.83
2018-11-12T09:08:53.227Z,1004.84
2018-11-12T09:09:53.283Z,1004.91
2018-11-12T09:10:53.217Z,1004.99
2018-11-12T09:11:53.181Z,1004.85
2018-11-12T09:12:53.176Z,1004.92
2018-11-12T09:13:53.158Z,1004.92
2018-11-12T09:14:53.220Z,1004.98
2018-11-12T09:15:53.208Z,1004.95
2018-11-12T09:16:53.179Z,1005.00
2018-11-12T09:17:53.267Z,1004.95
2018-11-12T09:18:53.201Z,1004.92
2018-11-12T09:19:53.112Z,1005.01
2018-11-12T09:20:53.080Z,1004.93
2018-11-12T09:21:53.101Z,1005.00
2018-11-12T09:22:53.069Z,1004.99
2018-11-12T09:23:53.071Z,1004.91
2018-11-12T09:24:53.187Z,1004.97
2018-11-12T09:25:53.025Z,1005.00
2018-11-12T09:26:53.013Z,1005.01
2018-11-12T09:27:53.035Z,1004.97
2018-11-12T09:28:52.991Z,1005.00
2018-11-12T09:29:53.015Z,1005.05
2018-11-12T09:30:54.272Z,1005.00
2018-11-12T09:31:53.054Z,1005.10
2018-11-12T09:32:53.114Z,1005.16
2018-11-12T09:33:52.943Z,1005.16
2018-11-12T09:34:52.990Z,1005.13
2018-11-12T09:35:52.955Z,1005.17
2018-11-12T09:36:53.100Z,1005.18
2018-11-12T09:37:52.940Z,1005.19
2018-11-12T09:38:53.008Z,1005.10
2018-11-12T09:39:52.908Z,1005.13
2018-11-12T09:40:52.888Z,1005.14
2018-11-12T09:41:52.853Z,1005.19
2018-11-12T09:42:52.866Z,1005.11
2018-11-12T09:43:52.946Z,1005.05
2018-11-12T09:44:52.925Z,1005.17
2018-11-12T09:45:52.912Z,1005.12
2018-11-12T09:46:52.835Z,1005.16
2018-11-12T09:47:52.906Z,1005.13
2018-11-12T09:48:52.885Z,1005.11
2018-11-12T09:49:52.813Z,1005.13
2018-11-12T09:50:52.773Z,1005.19
2018-11-12T09:51:52.779Z,1005.15
2018-11-12T09:52:52.743Z,1005.14
2018-11-12T09:53:53.054Z,1005.11
2018-11-12T09:54:52.797Z,1005.16
2018-11-12T09:55:52.772Z,1005.30
2018-11-12T09:56:52.697Z,1005.29
2018-11-12T09:57:52.685Z,1005.25
2018-11-12T09:58:52.671Z,1005.27
2018-11-12T09:59:52.926Z,1005.23
2018-11-12T10:00:53.164Z,1005.17
2018-11-12T10:01:53.808Z,1005.14
2018-11-12T10:02:53.357Z,1005.12
2018-11-12T10:03:53.717Z,1005.14
2018-11-12T10:04:53.978Z,1005.14
2018-11-12T10:05:53.609Z,1005.17
2018-11-12T10:06:54.489Z,1005.13
2018-11-12T10:07:55.165Z,1005.04
2018-11-12T10:08:55.469Z,1005.02
2018-11-12T10:09:54.301Z,1005.03
2018-11-12T10:10:56.158Z,1005.09
2018-11-12T10:11:53.774Z,1005.02
2018-11-12T10:12:54.105Z,1005.01
2018-11-12T10:13:55.253Z,1005.05
2018-11-12T10:14:54.849Z,1005.10
2018-11-12T10:15:55.047Z,1005.11
2018-11-12T10:16:55.665Z,1005.06
2018-11-12T10:17:54.949Z,1005.06
2018-11-12T10:18:52.555Z,1005.07
2018-11-12T10:19:52.458Z,1005.05
2018-11-12T10:20:52.458Z,1005.14
2018-11-12T10:21:52.436Z,1005.14
2018-11-12T10:22:52.452Z,1005.11
2018-11-12T10:23:52.409Z,1005.19
2018-11-12T10:24:52.509Z,1005.22
2018-11-12T10:25:52.401Z,1005.20
2018-11-12T10:26:52.404Z,1005.26
2018-11-12T10:27:52.356Z,1005.22
2018-11-12T10:28:52.364Z,1005.25
2018-11-12T10:29:52.425Z,1005.24
2018-11-12T10:30:52.350Z,1005.24
2018-11-12T10:31:52.313Z,1005.20
2018-11-12T10:32:52.425Z,1005.23
2018-11-12T10:33:52.341Z,1005.22
2018-11-12T10:34:52.280Z,1005.17
2018-11-12T10:35:52.503Z,1005.22
2018-11-12T10:36:52.271Z,1005.23
2018-11-12T10:37:52.255Z,1005.21
2018-11-12T10:38:52.237Z,1005.22
2018-11-12T10:39:52.232Z,1005.15
2018-11-12T10:40:52.367Z,1005.18
2018-11-12T10:41:52.260Z,1005.13
2018-11-12T10:42:52.415Z,1005.10
2018-11-12T10:43:52.175Z,1005.12
2018-11-12T10:44:52.161Z,1005.13
2018-11-12T10:45:52.180Z,1005.18
2018-11-12T10:46:52.170Z,1005.15
2018-11-12T10:47:52.198Z,1005.18
2018-11-12T10:48:52.220Z,1005.18
2018-11-12T10:49:52.126Z,1005.27
2018-11-12T10:50:56.377Z,1005.21
2018-11-12T10:51:52.095Z,1005.22
2018-11-12T10:52:52.165Z,1005.14
2018-11-12T10:53:52.143Z,1005.24
2018-11-12T10:55:04.897Z,1005.16
2018-11-12T10:55:52.326Z,1005.13
2018-11-12T10:56:52.047Z,1005.05
2018-11-12T10:57:52.067Z,1005.06
2018-11-12T10:58:52.008Z,1005.08
2018-11-12T10:59:52.069Z,1005.13
2018-11-12T11:00:52.030Z,1005.09
2018-11-12T11:01:51.989Z,1005.11
2018-11-12T11:02:51.974Z,1005.13
2018-11-12T11:03:51.962Z,1005.05
2018-11-12T11:04:51.947Z,1005.09
2018-11-12T11:05:51.986Z,1005.04
2018-11-12T11:06:51.933Z,1005.18
2018-11-12T11:07:51.916Z,1005.05
2018-11-12T11:08:51.935Z,1005.09
2018-11-12T11:09:51.931Z,1005.17
2018-11-12T11:10:51.899Z,1005.15
2018-11-12T11:11:51.914Z,1005.06
2018-11-12T11:12:51.860Z,1005.05
2018-11-12T11:13:51.878Z,1005.20
2018-11-12T11:14:51.846Z,1005.19
2018-11-12T11:15:51.839Z,1005.19
2018-11-12T11:16:51.888Z,1005.12
2018-11-12T11:17:51.813Z,1005.19
2018-11-12T11:18:51.806Z,1005.17
2018-11-12T11:19:51.874Z,1005.19
2018-11-12T11:20:51.776Z,1005.26
2018-11-12T11:21:51.796Z,1005.19
2018-11-12T11:22:51.760Z,1005.15
2018-11-12T11:23:51.741Z,1005.11
2018-11-12T11:24:51.768Z,1005.10
2018-11-12T11:25:51.756Z,1005.14
2018-11-12T11:26:51.769Z,1005.11
2018-11-12T11:27:51.720Z,1005.15
2018-11-12T11:28:51.705Z,1005.15
2018-11-12T11:29:51.681Z,1005.12
2018-11-12T11:30:51.679Z,1005.13
2018-11-12T11:31:51.773Z,1005.14
2018-11-12T11:32:51.657Z,1005.12
2018-11-12T11:33:51.652Z,1005.15
2018-11-12T11:34:51.639Z,1005.07
2018-11-12T11:35:51.624Z,1005.20
2018-11-12T11:36:51.706Z,1005.18
2018-11-12T11:37:51.631Z,1005.23
2018-11-12T11:38:51.582Z,1005.07
2018-11-12T11:39:51.578Z,1005.19
2018-11-12T11:40:51.671Z,1005.28
2018-11-12T11:41:51.585Z,1005.31
2018-11-12T11:42:51.558Z,1005.34
2018-11-12T11:43:51.594Z,1005.37
2018-11-12T11:44:51.523Z,1005.45
2018-11-12T11:45:51.519Z,1005.38
2018-11-12T11:46:51.566Z,1005.31
2018-11-12T11:47:51.694Z,1005.38
2018-11-12T11:48:51.569Z,1005.37
2018-11-12T11:49:51.490Z,1005.34
2018-11-12T11:50:51.455Z,1005.38
2018-11-12T11:51:51.470Z,1005.31
2018-11-12T11:52:51.449Z,1005.36
2018-11-12T11:53:51.457Z,1005.36
2018-11-12T11:54:51.422Z,1005.45
2018-11-12T11:55:51.401Z,1005.36
2018-11-12T11:56:51.602Z,1005.35
2018-11-12T11:57:51.379Z,1005.40
2018-11-12T11:58:51.375Z,1005.38
2018-11-12T11:59:51.421Z,1005.36
2018-11-12T12:00:51.373Z,1005.42
2018-11-12T12:01:51.367Z,1005.35
2018-11-12T12:02:51.394Z,1005.29
2018-11-12T12:03:51.320Z,1005.36
2018-11-12T12:04:51.313Z,1005.29
2018-11-12T12:05:51.293Z,1005.32